Time;durP1;ratioP1;P1;durP2;ratioP2;P2;SDS_P1;SDS_P2;PMS_P1;PMS_P2;Temp;Humidity;BMP_temperature;BMP_pressure;BME280_temperature;BME280_humidity;BME280_pressure;Samples;Min_cycle;Max_cycle;Signal;HPM_P1;HPM_P2
2023/07/03 00:00:47;;;;;;;4.38;2.58;;;;;;;19.83;100.00;94148.06;5098043;28;20024;-85
2023/07/03 00:03:13;;;;;;;7.43;3.10;;;;;;;19.52;100.00;94152.00;5096599;28;20028;-85
2023/07/03 00:05:47;;;;;;;3.92;2.33;;;;;;;19.58;100.00;94137.41;5080002;28;20031;-86
2023/07/03 00:08:14;;;;;;;8.23;3.20;;;;;;;19.31;100.00;94145.66;5079590;28;20056;-86
2023/07/03 00:10:39;;;;;;;4.78;2.63;;;;;;;19.16;100.00;94148.94;5096429;28;20024;-85
2023/07/03 00:13:05;;;;;;;8.07;3.20;;;;;;;19.11;100.00;94139.28;5079602;28;20341;-86
2023/07/03 00:15:31;;;;;;;4.88;2.90;;;;;;;18.97;100.00;94147.53;5096366;28;20110;-85
2023/07/03 00:17:56;;;;;;;3.80;2.58;;;;;;;18.98;100.00;94151.72;5079541;28;20022;-85
2023/07/03 00:20:22;;;;;;;6.60;2.67;;;;;;;18.83;100.00;94141.72;5096283;28;20103;-85
2023/07/03 00:22:48;;;;;;;4.40;2.50;;;;;;;18.88;100.00;94146.81;5096752;28;20024;-85
2023/07/03 00:25:14;;;;;;;7.05;2.65;;;;;;;18.95;100.00;94141.75;5078731;28;20024;-85
2023/07/03 00:27:40;;;;;;;4.97;2.92;;;;;;;19.07;100.00;94143.72;5079001;28;20027;-85
2023/07/03 00:30:06;;;;;;;4.95;2.80;;;;;;;18.74;100.00;94137.22;5079145;28;20020;-85
2023/07/03 00:32:32;;;;;;;5.82;2.75;;;;;;;18.67;100.00;94142.31;5063064;28;20062;-85
2023/07/03 00:34:57;;;;;;;6.28;2.67;;;;;;;18.70;100.00;94133.69;5079350;28;20053;-85
2023/07/03 00:37:23;;;;;;;7.97;2.95;;;;;;;18.67;100.00;94136.19;5079253;28;20043;-84
2023/07/03 00:39:48;;;;;;;5.20;2.72;;;;;;;18.89;100.00;94135.09;5097112;28;20371;-85
2023/07/03 00:42:14;;;;;;;4.53;2.38;;;;;;;18.91;100.00;94144.28;5095980;28;20516;-85
2023/07/03 00:44:39;;;;;;;6.68;2.80;;;;;;;18.93;100.00;94146.59;5095815;28;20024;-85
2023/07/03 00:47:07;;;;;;;3.78;2.17;;;;;;;19.05;100.00;94143.25;5095674;28;20046;-85
2023/07/03 00:49:32;;;;;;;7.85;2.40;;;;;;;18.95;100.00;94139.09;5095723;28;20024;-85
2023/07/03 00:51:59;;;;;;;4.75;2.63;;;;;;;19.09;100.00;94146.03;5096014;28;20043;-85
2023/07/03 00:54:25;;;;;;;5.53;2.45;;;;;;;19.02;100.00;94141.25;5095788;28;20019;-85
2023/07/03 00:56:50;;;;;;;6.18;2.50;;;;;;;18.95;100.00;94141.75;5095512;28;20019;-85
2023/07/03 00:59:16;;;;;;;5.07;2.45;;;;;;;18.88;100.00;94139.63;5078940;28;20024;-85
2023/07/03 01:01:52;;;;;;;3.55;2.08;;;;;;;18.86;100.00;94139.16;5079044;28;20085;-86
2023/07/03 01:04:27;;;;;;;6.03;2.25;;;;;;;18.83;100.00;94144.38;5095647;28;20031;-85
2023/07/03 01:07:07;;;;;;;4.50;2.40;;;;;;;19.00;100.00;94146.88;5095483;28;20027;-85
2023/07/03 01:10:04;;;;;;;4.43;2.50;;;;;;;19.21;100.00;94148.72;5078963;28;20032;-85
2023/07/03 01:12:31;;;;;;;5.80;2.70;;;;;;;19.35;100.00;94145.78;5074589;28;20127;-85
2023/07/03 01:14:59;;;;;;;3.42;1.95;;;;;;;19.24;100.00;94153.41;5095522;28;20035;-86
2023/07/03 01:17:28;;;;;;;3.97;2.70;;;;;;;18.93;100.00;94151.91;5095356;28;20032;-85
2023/07/03 01:19:53;;;;;;;5.68;2.38;;;;;;;18.88;100.00;94149.47;5095399;28;20125;-85
2023/07/03 01:22:22;;;;;;;5.07;2.40;;;;;;;18.82;100.00;94138.25;5078790;28;20031;-85
2023/07/03 01:24:51;;;;;;;5.35;2.40;;;;;;;18.72;100.00;94144.75;5096636;28;20352;-85
2023/07/03 01:27:19;;;;;;;9.43;2.65;;;;;;;18.57;100.00;94145.34;5095160;28;20038;-85
2023/07/03 01:29:45;;;;;;;3.60;2.28;;;;;;;18.66;100.00;94148.72;5095371;28;20341;-85
2023/07/03 01:32:11;;;;;;;4.57;2.58;;;;;;;18.54;100.00;94140.69;5095342;28;20028;-85
2023/07/03 01:34:39;;;;;;;3.97;2.65;;;;;;;18.55;100.00;94147.53;5095339;28;20032;-85
2023/07/03 01:37:05;;;;;;;4.03;2.50;;;;;;;18.56;100.00;94147.19;5098976;28;20046;-85
2023/07/03 01:39:31;;;;;;;3.58;2.20;;;;;;;18.50;100.00;94145.84;5071134;28;20032;-85
2023/07/03 01:41:58;;;;;;;7.43;2.53;;;;;;;18.61;100.00;94136.41;5062541;28;20039;-85
2023/07/03 01:44:23;;;;;;;4.68;2.45;;;;;;;18.65;100.00;94133.91;5062403;28;20032;-84
2023/07/03 01:46:49;;;;;;;5.57;2.25;;;;;;;18.75;100.00;94136.13;5078724;28;20033;-85
2023/07/03 01:49:15;;;;;;;4.38;2.33;;;;;;;18.70;100.00;94138.19;5082416;28;20035;-85
2023/07/03 01:52:10;;;;;;;4.47;2.42;;;;;;;18.69;100.00;94140.09;5091600;28;20036;-85
2023/07/03 01:54:52;;;;;;;6.32;2.60;;;;;;;18.78;100.00;94138.13;5064996;28;20365;-85
2023/07/03 01:57:29;;;;;;;4.10;2.55;;;;;;;18.69;100.00;94141.97;5080780;28;20123;-85
2023/07/03 01:59:56;;;;;;;4.57;2.65;;;;;;;18.55;100.00;94140.34;5073162;28;20333;-85
2023/07/03 02:02:25;;;;;;;6.32;2.60;;;;;;;18.55;100.00;94142.22;5085019;28;20024;-85
2023/07/03 02:05:07;;;;;;;7.03;2.95;;;;;;;18.54;100.00;94141.44;5078597;28;20115;-85
2023/07/03 02:07:34;;;;;;;5.38;2.15;;;;;;;18.57;100.00;94143.44;5061953;28;20040;-85
2023/07/03 02:09:59;;;;;;;4.07;2.38;;;;;;;18.65;100.00;94142.63;5078536;28;20061;-82
2023/07/03 02:12:25;;;;;;;6.57;2.53;;;;;;;18.83;100.00;94136.41;5078491;28;20103;-82
2023/07/03 02:14:51;;;;;;;3.33;2.10;;;;;;;19.07;100.00;94141.81;5078357;28;20033;-82
2023/07/03 02:17:16;;;;;;;3.60;2.17;;;;;;;19.16;100.00;94138.31;5061815;28;20029;-82
2023/07/03 02:19:42;;;;;;;7.50;2.67;;;;;;;19.21;100.00;94146.84;5078339;28;20330;-82
2023/07/03 02:22:07;;;;;;;4.93;2.33;;;;;;;19.18;100.00;94141.41;5079422;28;20025;-82
2023/07/03 02:24:33;;;;;;;4.07;2.65;;;;;;;19.07;100.00;94141.81;5078216;28;20036;-82
2023/07/03 02:26:59;;;;;;;4.63;2.58;;;;;;;19.14;100.00;94140.53;5079178;28;20082;-82
2023/07/03 02:29:24;;;;;;;6.68;2.53;;;;;;;19.01;100.00;94140.47;5061583;28;20032;-82
2023/07/03 02:31:50;;;;;;;4.88;2.50;;;;;;;18.77;100.00;94125.19;5078062;28;20111;-82
2023/07/03 02:34:15;;;;;;;4.68;2.55;;;;;;;18.47;100.00;94130.59;5061599;28;20024;-82
2023/07/03 02:36:41;;;;;;;5.25;2.25;;;;;;;18.29;100.00;94132.56;5061126;28;20024;-82
2023/07/03 02:39:07;;;;;;;4.68;2.55;;;;;;;18.23;100.00;94139.94;5077877;28;20331;-82
2023/07/03 02:41:33;;;;;;;3.75;2.40;;;;;;;18.14;100.00;94137.34;5078254;28;20029;-82
2023/07/03 02:43:59;;;;;;;7.28;2.80;;;;;;;18.23;100.00;94140.72;5077897;28;20032;-82
2023/07/03 02:46:24;;;;;;;7.97;2.70;;;;;;;18.11;100.00;94137.19;5077615;28;20123;-82
2023/07/03 02:48:50;;;;;;;8.38;2.67;;;;;;;18.21;100.00;94132.28;5076990;28;20444;-82
2023/07/03 02:51:15;;;;;;;4.40;2.40;;;;;;;18.27;100.00;94137.41;5078586;28;20442;-82
2023/07/03 02:53:45;;;;;;;5.18;2.42;;;;;;;18.07;100.00;94135.19;5061216;28;20036;-82
2023/07/03 02:56:10;;;;;;;11.20;2.85;;;;;;;17.97;100.00;94130.22;5077741;28;20028;-82
2023/07/03 02:58:36;;;;;;;6.05;2.58;;;;;;;17.99;100.00;94133.31;5077477;28;20035;-82
2023/07/03 03:01:02;;;;;;;4.53;2.60;;;;;;;17.90;100.00;94141.31;5077582;28;20035;-82
2023/07/03 03:03:28;;;;;;;4.72;2.50;;;;;;;18.03;100.00;94130.84;5061110;28;20111;-82
2023/07/03 03:05:57;;;;;;;8.55;3.22;;;;;;;17.96;100.00;94136.59;5077486;28;20119;-82
2023/07/03 03:08:24;;;;;;;3.95;2.42;;;;;;;17.92;100.00;94138.34;5061054;28;20074;-82
2023/07/03 03:10:50;;;;;;;5.30;2.85;;;;;;;17.74;100.00;94143.72;5077417;28;20384;-82
2023/07/03 03:13:16;;;;;;;4.28;2.63;;;;;;;17.67;100.00;94141.56;5077543;28;20036;-82
2023/07/03 03:15:43;;;;;;;4.93;2.90;;;;;;;17.81;100.00;94143.25;5061121;28;20441;-82
2023/07/03 03:18:09;;;;;;;4.18;2.38;;;;;;;17.83;100.00;94143.69;5076892;28;20031;-82
2023/07/03 03:20:35;;;;;;;6.30;2.45;;;;;;;17.73;100.00;94147.47;5077152;28;20147;-82
2023/07/03 03:23:00;;;;;;;7.22;3.00;;;;;;;17.65;100.00;94141.13;5060615;28;20116;-82
2023/07/03 03:25:25;;;;;;;5.20;2.50;;;;;;;17.66;100.00;94150.63;5077120;28;20031;-82
2023/07/03 03:27:51;;;;;;;6.72;3.22;;;;;;;17.63;100.00;94145.94;5060393;28;20050;-82
2023/07/03 03:30:16;;;;;;;9.43;3.38;;;;;;;17.74;100.00;94145.59;5082930;28;20033;-82
2023/07/03 03:32:43;;;;;;;13.98;3.20;;;;;;;17.59;100.00;94133.66;5071483;28;20066;-82
2023/07/03 03:35:08;;;;;;;8.90;3.22;;;;;;;17.68;100.00;94147.63;5086886;28;20337;-81
2023/07/03 03:37:34;;;;;;;4.20;2.78;;;;;;;17.75;100.00;94147.16;5081177;28;20024;-82
2023/07/03 03:39:59;;;;;;;7.13;2.67;;;;;;;17.80;100.00;94147.75;5076694;28;20031;-82
2023/07/03 03:42:24;;;;;;;7.40;2.85;;;;;;;17.71;100.00;94147.00;5076646;28;20055;-82
2023/07/03 03:44:50;;;;;;;4.70;2.47;;;;;;;17.70;100.00;94144.69;5077749;28;20032;-82
2023/07/03 03:47:15;;;;;;;6.18;2.63;;;;;;;17.84;100.00;94147.09;5076938;28;20040;-81
2023/07/03 03:49:41;;;;;;;6.45;2.70;;;;;;;17.93;100.00;94146.00;5079852;28;20421;-82
2023/07/03 03:52:07;;;;;;;4.72;2.60;;;;;;;17.96;100.00;94152.50;5096833;28;20042;-82
2023/07/03 03:54:32;;;;;;;5.78;2.83;;;;;;;17.85;100.00;94149.44;5096996;28;20028;-82
2023/07/03 03:57:01;;;;;;;6.93;2.83;;;;;;;17.86;100.00;94148.34;5096548;28;20087;-81
2023/07/03 03:59:26;;;;;;;7.38;2.85;;;;;;;17.77;100.00;94144.94;5097705;28;20023;-81
2023/07/03 04:01:52;;;;;;;6.28;2.90;;;;;;;17.82;100.00;94144.78;5096659;28;20028;-82
2023/07/03 04:04:17;;;;;;;6.55;3.25;;;;;;;17.72;100.00;94145.13;5079860;28;20134;-82
2023/07/03 04:06:43;;;;;;;4.28;2.45;;;;;;;18.08;100.00;94144.69;5096026;28;20045;-81
2023/07/03 04:09:09;;;;;;;5.32;2.75;;;;;;;18.05;100.00;94161.25;5097610;28;20352;-81
2023/07/03 04:11:35;;;;;;;6.50;3.17;;;;;;;17.74;100.00;94162.28;5079784;28;20335;-82
2023/07/03 04:14:00;;;;;;;5.05;2.92;;;;;;;17.77;100.00;94159.00;5096470;28;20110;-82
2023/07/03 04:16:27;;;;;;;5.85;3.05;;;;;;;17.62;100.00;94159.50;5096436;28;20027;-82
2023/07/03 04:18:52;;;;;;;3.85;2.50;;;;;;;17.63;100.00;94161.06;5079488;28;20028;-82
2023/07/03 04:21:18;;;;;;;4.82;2.92;;;;;;;17.65;100.00;94164.97;5082538;28;20035;-82
2023/07/03 04:23:43;;;;;;;6.38;3.20;;;;;;;17.48;100.00;94163.13;5059495;28;20024;-81
2023/07/03 04:26:09;;;;;;;5.18;2.83;;;;;;;17.47;100.00;94160.78;5075942;28;20050;-81
2023/07/03 04:28:34;;;;;;;8.90;3.15;;;;;;;17.53;100.00;94155.00;5075724;28;20119;-81
2023/07/03 04:31:00;;;;;;;4.65;2.72;;;;;;;17.88;100.00;94156.75;5094109;28;20111;-82
2023/07/03 04:33:25;;;;;;;5.03;3.05;;;;;;;17.66;100.00;94161.22;5079396;28;20039;-82
2023/07/03 04:35:50;;;;;;;6.80;3.13;;;;;;;17.62;100.00;94162.16;5096599;28;20077;-81
2023/07/03 04:38:23;;;;;;;5.75;3.03;;;;;;;17.75;100.00;94157.75;5095650;28;20086;-82
2023/07/03 04:40:49;;;;;;;7.10;2.83;;;;;;;17.66;100.00;94163.88;5080364;28;20032;-81
2023/07/03 04:43:15;;;;;;;6.85;3.10;;;;;;;17.49;100.00;94159.38;5095909;28;20028;-81
2023/07/03 04:45:46;;;;;;;6.63;3.08;;;;;;;17.70;100.00;94161.34;5095931;28;20433;-81
2023/07/03 04:48:12;;;;;;;5.65;2.83;;;;;;;17.92;100.00;94168.28;5095271;28;20050;-81
2023/07/03 04:50:38;;;;;;;7.18;2.88;;;;;;;18.00;100.00;94166.66;5095742;28;20031;-81
2023/07/03 04:53:03;;;;;;;6.95;3.20;;;;;;;18.03;100.00;94170.59;5095736;28;20036;-81
2023/07/03 04:55:30;;;;;;;5.40;3.20;;;;;;;17.90;100.00;94167.06;5095585;28;20418;-81
2023/07/03 04:57:57;;;;;;;5.40;2.83;;;;;;;17.90;100.00;94172.34;5095537;28;20028;-81
2023/07/03 05:00:23;;;;;;;6.35;2.70;;;;;;;17.92;100.00;94176.22;5078701;28;20040;-82
2023/07/03 05:02:51;;;;;;;9.77;3.10;;;;;;;18.19;100.00;94174.25;5096885;28;20035;-82
2023/07/03 05:05:18;;;;;;;6.00;2.95;;;;;;;18.40;100.00;94173.53;5096831;28;20035;-81
2023/07/03 05:07:44;;;;;;;6.63;3.22;;;;;;;18.31;100.00;94176.25;5095429;28;20460;-81
2023/07/03 05:10:11;;;;;;;8.80;3.08;;;;;;;18.26;100.00;94171.09;5095183;28;20110;-81
2023/07/03 05:12:37;;;;;;;5.18;2.70;;;;;;;18.41;100.00;94174.28;5095600;28;20086;-81
2023/07/03 05:15:04;;;;;;;6.38;3.25;;;;;;;18.65;100.00;94179.75;5095597;28;20031;-81
2023/07/03 05:17:29;;;;;;;4.65;2.70;;;;;;;18.60;100.00;94189.78;5095340;28;20393;-81
2023/07/03 05:19:56;;;;;;;7.85;3.58;;;;;;;18.46;100.00;94188.16;5095454;28;20032;-81
2023/07/03 05:22:21;;;;;;;4.93;2.88;;;;;;;18.79;100.00;94190.13;5095532;28;20032;-81
2023/07/03 05:24:50;;;;;;;5.38;2.95;;;;;;;18.91;100.00;94191.28;5079166;28;20055;-89
2023/07/03 05:27:15;;;;;;;6.30;2.72;;;;;;;18.73;100.00;94196.72;5075320;28;20036;-82
2023/07/03 05:29:41;;;;;;;4.88;2.67;;;;;;;19.12;100.00;94193.94;5075778;28;20050;-81
2023/07/03 05:32:07;;;;;;;7.93;2.75;;;;;;;19.46;100.00;94193.94;5075239;28;20033;-80
2023/07/03 05:34:33;;;;;;;4.30;2.90;;;;;;;19.49;100.00;94193.28;5076633;28;20029;-81
2023/07/03 05:36:59;;;;;;;3.97;2.63;;;;;;;19.68;100.00;94198.09;5074951;28;20024;-80
2023/07/03 05:39:24;;;;;;;6.22;3.08;;;;;;;19.85;100.00;94205.13;5059152;28;20067;-81
2023/07/03 05:41:50;;;;;;;5.07;2.88;;;;;;;20.04;100.00;94193.97;5058609;28;20433;-80
2023/07/03 05:44:15;;;;;;;4.93;3.20;;;;;;;20.23;100.00;94197.19;5085911;28;20032;-81
2023/07/03 05:46:41;;;;;;;5.50;2.78;;;;;;;20.30;100.00;94187.56;5095314;28;20047;-81
2023/07/03 05:49:06;;;;;;;5.80;2.70;;;;;;;20.44;100.00;94189.88;5074989;28;20505;-81
2023/07/03 05:51:32;;;;;;;3.60;2.38;;;;;;;20.54;100.00;94188.63;5074948;28;20066;-81
2023/07/03 05:53:57;;;;;;;6.13;2.80;;;;;;;20.39;100.00;94189.31;5073604;28;20462;-81
2023/07/03 05:56:27;;;;;;;7.30;3.35;;;;;;;20.20;100.00;94188.75;5095345;28;20032;-81
2023/07/03 05:58:52;;;;;;;4.93;2.78;;;;;;;20.15;100.00;94188.22;5094723;28;20437;-81
2023/07/03 06:01:20;;;;;;;10.88;3.15;;;;;;;20.27;100.00;94192.78;5078202;28;20039;-80
2023/07/03 06:03:47;;;;;;;6.18;2.63;;;;;;;20.44;100.00;94197.06;5096305;28;20428;-80
2023/07/03 06:06:13;;;;;;;4.15;2.70;;;;;;;20.31;100.00;94193.66;5095101;28;20188;-80
2023/07/03 06:08:39;;;;;;;6.07;2.90;;;;;;;20.54;100.00;94196.63;5094671;28;20032;-80
2023/07/03 06:11:04;;;;;;;6.32;2.80;;;;;;;20.46;100.00;94195.63;5078381;28;20039;-81
2023/07/03 06:13:30;;;;;;;8.63;3.20;;;;;;;20.73;100.00;94192.59;5096210;28;20034;-80
2023/07/03 06:15:56;;;;;;;6.75;3.05;;;;;;;20.56;100.00;94204.28;5094872;28;20028;-80
2023/07/03 06:18:22;;;;;;;5.45;3.00;;;;;;;20.57;100.00;94205.81;5094556;28;20031;-80
2023/07/03 06:20:48;;;;;;;7.35;2.67;;;;;;;20.84;100.00;94200.94;5094991;28;20028;-80
2023/07/03 06:23:13;;;;;;;4.00;2.65;;;;;;;20.77;100.00;94204.88;5098085;28;20036;-80
2023/07/03 06:25:40;;;;;;;7.28;2.83;;;;;;;20.64;100.00;94208.69;5098132;28;20077;-80
2023/07/03 06:28:05;;;;;;;144.70;20.60;;;;;;;20.77;100.00;94204.88;5097889;28;20032;-80
2023/07/03 06:30:31;;;;;;;5.03;3.10;;;;;;;20.82;100.00;94216.47;5081009;28;20039;-80
2023/07/03 06:32:56;;;;;;;12.77;2.90;;;;;;;20.92;100.00;94209.91;5081276;28;20067;-81
2023/07/03 06:35:22;;;;;;;120.43;12.13;;;;;;;20.94;100.00;94207.66;5081394;28;20086;-82
2023/07/03 06:37:47;;;;;;;8.50;3.78;;;;;;;21.16;100.00;94204.50;5098764;28;20024;-81
2023/07/03 06:40:15;;;;;;;97.30;11.98;;;;;;;21.41;100.00;94215.03;5080703;28;20463;-80
2023/07/03 06:42:41;;;;;;;18.00;6.10;;;;;;;21.53;100.00;94213.44;5098962;28;20353;-80
2023/07/03 06:45:07;;;;;;;8.63;3.10;;;;;;;21.61;100.00;94205.28;5097776;28;20138;-79
2023/07/03 06:47:33;;;;;;;6.57;3.00;;;;;;;21.53;100.00;94211.56;5097733;28;20118;-80
2023/07/03 06:49:58;;;;;;;8.55;2.95;;;;;;;21.59;100.00;94206.72;5098534;28;20039;-79
2023/07/03 06:52:23;;;;;;;6.50;3.00;;;;;;;21.93;100.00;94201.91;5097743;28;20031;-79
2023/07/03 06:54:49;;;;;;;6.88;3.08;;;;;;;21.83;100.00;94203.19;5090452;28;20414;-79
2023/07/03 06:57:14;;;;;;;18.42;5.03;;;;;;;22.02;100.00;94205.19;5078457;28;20393;-79
2023/07/03 06:59:40;;;;;;;32.45;4.85;;;;;;;22.07;100.00;94211.38;5077734;28;20081;-80
2023/07/03 07:02:06;;;;;;;20.83;3.35;;;;;;;21.94;100.00;94205.34;5077076;28;20093;-79
2023/07/03 07:04:32;;;;;;;5.32;2.53;;;;;;;21.72;100.00;94202.91;5077087;28;20430;-80
2023/07/03 07:06:57;;;;;;;4.47;2.88;;;;;;;22.11;100.00;94213.00;5059840;28;20127;-80
2023/07/03 07:09:23;;;;;;;6.75;3.08;;;;;;;22.20;100.00;94212.03;5077112;28;20411;-80
2023/07/03 07:11:48;;;;;;;5.40;3.15;;;;;;;22.42;100.00;94206.09;5076986;28;20028;-80
2023/07/03 07:14:14;;;;;;;5.63;2.85;;;;;;;22.57;100.00;94214.47;5077330;28;20520;-81
2023/07/03 07:16:40;;;;;;;7.35;2.95;;;;;;;22.30;100.00;94212.28;5096787;28;20532;-80
2023/07/03 07:19:08;;;;;;;8.50;3.40;;;;;;;22.48;100.00;94206.63;5096762;28;20069;-80
2023/07/03 07:21:36;;;;;;;4.55;2.90;;;;;;;22.42;100.00;94210.66;5080480;28;20062;-80
2023/07/03 07:24:10;;;;;;;6.90;2.78;;;;;;;22.36;100.00;94201.38;5097442;28;20035;-80
2023/07/03 07:26:36;;;;;;;5.90;2.85;;;;;;;22.86;100.00;94201.72;5096860;28;20049;-80
2023/07/03 07:29:02;;;;;;;5.28;2.65;;;;;;;22.45;100.00;94217.94;5096855;28;20024;-80
2023/07/03 07:31:29;;;;;;;6.43;2.83;;;;;;;22.91;100.00;94211.34;5097117;28;20028;-80
2023/07/03 07:33:55;;;;;;;7.68;2.53;;;;;;;22.96;100.00;94214.53;5096349;28;20345;-80
2023/07/03 07:36:22;;;;;;;8.18;3.00;;;;;;;23.08;100.00;94218.94;5096717;28;20038;-80
2023/07/03 07:38:52;;;;;;;6.38;3.08;;;;;;;23.08;100.00;94234.19;5096463;28;20085;-80
2023/07/03 07:41:17;;;;;;;9.57;2.92;;;;;;;23.14;100.00;94217.53;5096939;28;20039;-80
2023/07/03 07:43:43;;;;;;;5.47;2.90;;;;;;;23.22;100.00;94218.44;5097127;28;20437;-80
2023/07/03 07:46:09;;;;;;;5.28;2.85;;;;;;;23.41;100.00;94227.63;5079478;28;20032;-80
2023/07/03 07:48:35;;;;;;;4.22;2.83;;;;;;;23.57;100.00;94228.31;5096363;28;20340;-79
2023/07/03 07:51:00;;;;;;;3.40;2.25;;;;;;;23.39;100.00;94222.63;5097254;28;20031;-81
2023/07/03 07:53:29;;;;;;;8.15;2.60;;;;;;;23.63;100.00;94220.78;5096276;28;20035;-80
2023/07/03 07:55:55;;;;;;;4.75;2.70;;;;;;;23.73;100.00;94222.88;5097881;28;20028;-80
2023/07/03 07:58:21;;;;;;;6.45;2.90;;;;;;;23.62;100.00;94223.81;5079360;28;20081;-85
